Time;durP1;ratioP1;P1;durP2;ratioP2;P2;SDS_P1;SDS_P2;PMS_P1;PMS_P2;Temp;Humidity;BMP_temperature;BMP_pressure;BME280_temperature;BME280_humidity;BME280_pressure;Samples;Min_cycle;Max_cycle;Signal;HPM_P1;HPM_P2
2023/05/30 00:02:00;;;;;;;9.25;2.60;;;11.20;99.90;;;;;;5073104;28;20044;-83
2023/05/30 00:04:26;;;;;;;9.50;2.70;;;11.10;99.90;;;;;;5072695;28;20127;-83
2023/05/30 00:06:53;;;;;;;14.35;2.88;;;11.10;99.90;;;;;;5089468;28;20037;-82
2023/05/30 00:09:20;;;;;;;9.63;3.00;;;11.10;99.90;;;;;;5088317;28;20040;-83
2023/05/30 00:11:48;;;;;;;9.63;2.67;;;11.10;99.90;;;;;;5036457;28;20060;-83
2023/05/30 00:14:20;;;;;;;15.07;2.85;;;11.10;99.90;;;;;;5036428;28;20577;-84
2023/05/30 00:16:47;;;;;;;10.75;2.60;;;11.10;99.90;;;;;;5055838;28;20119;-84
2023/05/30 00:19:14;;;;;;;10.50;2.65;;;11.10;99.90;;;;;;5072409;28;20090;-83
2023/05/30 00:21:41;;;;;;;11.93;2.88;;;11.10;99.90;;;;;;5106456;28;20037;-83
2023/05/30 00:24:07;;;;;;;13.23;2.72;;;11.10;99.90;;;;;;5089128;28;20032;-83
2023/05/30 00:26:34;;;;;;;12.57;2.72;;;11.10;99.90;;;;;;5089591;28;20070;-83
2023/05/30 00:29:01;;;;;;;8.98;2.33;;;11.10;99.90;;;;;;5088670;28;20044;-83
2023/05/30 00:31:29;;;;;;;14.30;3.13;;;11.10;99.90;;;;;;5056586;28;20135;-83
2023/05/30 00:33:56;;;;;;;10.82;2.67;;;11.10;99.90;;;;;;5056782;28;20485;-83
2023/05/30 00:36:22;;;;;;;10.70;2.78;;;11.10;99.90;;;;;;5056181;28;20091;-83
2023/05/30 00:38:49;;;;;;;11.80;3.70;;;11.10;99.90;;;;;;5072778;28;20028;-83
2023/05/30 00:41:16;;;;;;;10.07;2.13;;;11.10;99.90;;;;;;5056220;28;20033;-83
2023/05/30 00:43:44;;;;;;;6.95;2.35;;;11.10;99.90;;;;;;5091146;28;20036;-83
2023/05/30 00:46:11;;;;;;;10.88;2.50;;;11.00;99.90;;;;;;5076749;28;20124;-83
2023/05/30 00:48:38;;;;;;;11.35;3.05;;;11.00;99.90;;;;;;5060435;28;20154;-83
2023/05/30 00:51:08;;;;;;;7.85;2.47;;;11.10;99.90;;;;;;5064450;28;20441;-83
2023/05/30 00:53:36;;;;;;;12.00;3.42;;;11.00;99.90;;;;;;5057059;28;20497;-83
2023/05/30 00:56:03;;;;;;;11.95;2.60;;;11.00;99.90;;;;;;5040352;28;20091;-83
2023/05/30 00:58:30;;;;;;;8.05;3.03;;;11.00;99.90;;;;;;5073299;28;20080;-83
2023/05/30 01:00:57;;;;;;;6.30;2.40;;;11.00;99.90;;;;;;5056555;28;20059;-83
2023/05/30 01:03:32;;;;;;;8.02;2.60;;;11.00;99.90;;;;;;5040226;28;20037;-83
2023/05/30 01:06:03;;;;;;;12.90;2.85;;;11.00;99.90;;;;;;5089571;28;20041;-83
2023/05/30 01:08:30;;;;;;;13.10;2.80;;;11.00;99.90;;;;;;5056310;28;20124;-83
2023/05/30 01:11:14;;;;;;;17.83;3.33;;;11.00;99.90;;;;;;5040343;28;20137;-83
2023/05/30 01:13:48;;;;;;;15.02;3.05;;;11.00;99.90;;;;;;5079844;28;20041;-83
2023/05/30 01:16:19;;;;;;;8.85;2.70;;;11.00;99.90;;;;;;5072563;28;20110;-83
2023/05/30 01:19:15;;;;;;;7.03;2.30;;;10.90;99.90;;;;;;5072878;28;20041;-83
2023/05/30 01:21:43;;;;;;;12.43;2.80;;;10.90;99.90;;;;;;5071322;28;20091;-84
2023/05/30 01:24:19;;;;;;;9.38;2.75;;;10.90;99.90;;;;;;5066159;28;20441;-84
2023/05/30 01:27:07;;;;;;;13.35;2.60;;;10.90;99.90;;;;;;5092810;28;20033;-83
2023/05/30 01:29:36;;;;;;;11.32;2.58;;;10.90;99.90;;;;;;5092454;28;20044;-84
2023/05/30 01:32:06;;;;;;;10.13;2.97;;;11.00;99.90;;;;;;5092359;28;20079;-84
2023/05/30 01:34:34;;;;;;;16.45;3.45;;;11.00;99.90;;;;;;5092420;28;20082;-84
2023/05/30 01:37:01;;;;;;;7.18;2.15;;;11.00;99.90;;;;;;5076342;28;20040;-83
2023/05/30 01:39:28;;;;;;;7.32;2.30;;;11.00;99.90;;;;;;5092043;28;20451;-83
2023/05/30 01:42:15;;;;;;;9.02;2.50;;;11.00;99.90;;;;;;5076059;28;20040;-83
2023/05/30 01:45:10;;;;;;;11.30;2.63;;;11.00;99.90;;;;;;5074940;28;20044;-83
2023/05/30 01:48:05;;;;;;;8.85;2.40;;;11.00;99.90;;;;;;5072070;28;20041;-83
2023/05/30 01:50:38;;;;;;;10.73;2.45;;;11.00;99.90;;;;;;5088683;28;20048;-84
2023/05/30 01:53:09;;;;;;;9.75;2.67;;;11.00;99.90;;;;;;5087837;28;20899;-83
2023/05/30 01:55:39;;;;;;;10.90;2.55;;;11.00;99.90;;;;;;5091582;28;20055;-83
2023/05/30 01:58:07;;;;;;;9.95;2.40;;;11.00;99.90;;;;;;5108763;28;20386;-83
2023/05/30 02:00:34;;;;;;;13.65;3.47;;;11.00;99.90;;;;;;5074767;28;20068;-84
2023/05/30 02:03:01;;;;;;;11.05;2.75;;;11.00;99.90;;;;;;5108350;28;20508;-83
2023/05/30 02:05:28;;;;;;;11.02;2.83;;;10.90;99.90;;;;;;5090131;28;20075;-84
2023/05/30 02:07:54;;;;;;;10.20;2.80;;;11.00;99.90;;;;;;5059118;28;20041;-83
2023/05/30 02:10:21;;;;;;;12.95;3.25;;;10.90;99.90;;;;;;5074792;28;20094;-84
2023/05/30 02:12:48;;;;;;;7.60;2.42;;;10.90;99.90;;;;;;5058479;28;20056;-83
2023/05/30 02:15:14;;;;;;;14.57;2.70;;;10.90;99.90;;;;;;5074747;28;20048;-84
2023/05/30 02:17:41;;;;;;;12.68;2.88;;;10.90;99.90;;;;;;5055055;28;20047;-84
2023/05/30 02:20:09;;;;;;;10.50;3.28;;;10.90;99.90;;;;;;5058333;28;20078;-84
2023/05/30 02:22:36;;;;;;;11.93;2.97;;;10.90;99.90;;;;;;5075047;28;20044;-84
2023/05/30 02:25:03;;;;;;;9.57;3.05;;;10.90;99.90;;;;;;5058685;28;20040;-83
2023/05/30 02:27:29;;;;;;;8.10;2.70;;;10.90;99.90;;;;;;5057939;28;20507;-84
2023/05/30 02:29:56;;;;;;;7.90;2.80;;;10.90;99.90;;;;;;5058293;28;20037;-84
2023/05/30 02:32:23;;;;;;;13.15;2.72;;;10.90;99.90;;;;;;5058271;28;20055;-84
2023/05/30 02:34:50;;;;;;;12.07;3.05;;;10.90;99.90;;;;;;5074604;28;20070;-84
2023/05/30 02:37:17;;;;;;;15.13;2.95;;;10.90;99.90;;;;;;5087279;28;20033;-83
2023/05/30 02:39:44;;;;;;;11.23;2.88;;;10.90;99.90;;;;;;5054681;28;20095;-83
2023/05/30 02:42:10;;;;;;;9.93;2.90;;;10.90;99.90;;;;;;5071242;28;20405;-84
2023/05/30 02:44:38;;;;;;;17.00;3.22;;;10.90;99.90;;;;;;5054388;28;20516;-84
2023/05/30 02:47:05;;;;;;;7.60;2.63;;;10.90;99.90;;;;;;5071040;28;20490;-84
2023/05/30 02:49:31;;;;;;;12.38;3.40;;;10.90;99.90;;;;;;5070673;28;20037;-84
2023/05/30 02:51:58;;;;;;;12.32;2.95;;;10.90;99.90;;;;;;5054352;28;20158;-83
2023/05/30 02:54:25;;;;;;;9.95;3.22;;;10.90;99.90;;;;;;5053732;28;20076;-84
2023/05/30 02:56:52;;;;;;;13.52;3.30;;;10.80;99.90;;;;;;5053976;28;20044;-84
2023/05/30 02:59:19;;;;;;;16.17;3.13;;;10.80;99.90;;;;;;5053464;28;20099;-84
2023/05/30 03:01:46;;;;;;;9.05;2.55;;;10.80;99.90;;;;;;5068246;28;20040;-83
2023/05/30 03:04:12;;;;;;;8.95;2.90;;;10.80;99.90;;;;;;5053648;28;20082;-83
2023/05/30 03:06:40;;;;;;;10.10;2.70;;;10.80;99.90;;;;;;5036243;28;20040;-83
2023/05/30 03:09:07;;;;;;;13.15;2.58;;;10.90;99.90;;;;;;5037513;28;20055;-83
2023/05/30 03:11:33;;;;;;;13.32;2.70;;;10.90;99.90;;;;;;5049547;28;20045;-84
2023/05/30 03:14:00;;;;;;;12.70;2.90;;;10.90;99.90;;;;;;5086721;28;20120;-84
2023/05/30 03:16:28;;;;;;;13.60;3.30;;;10.90;99.90;;;;;;5053576;28;20041;-84
2023/05/30 03:18:54;;;;;;;10.55;2.70;;;10.90;99.90;;;;;;5037242;28;20033;-84
2023/05/30 03:21:23;;;;;;;14.98;3.45;;;10.90;99.90;;;;;;5037024;28;20048;-84
2023/05/30 03:23:51;;;;;;;9.52;2.45;;;10.90;99.90;;;;;;5053687;28;20025;-84
2023/05/30 03:26:17;;;;;;;10.32;2.60;;;11.00;99.90;;;;;;5070510;28;20037;-84
2023/05/30 03:28:44;;;;;;;9.10;2.53;;;11.00;99.90;;;;;;5069747;28;20044;-84
2023/05/30 03:31:12;;;;;;;10.18;2.50;;;11.00;99.90;;;;;;5053986;28;20481;-84
2023/05/30 03:33:39;;;;;;;9.38;2.53;;;11.00;99.90;;;;;;5055238;28;20036;-84
2023/05/30 03:36:07;;;;;;;10.98;2.97;;;11.10;99.90;;;;;;5037409;28;20110;-84
2023/05/30 03:38:36;;;;;;;11.63;2.70;;;11.00;99.90;;;;;;5053799;28;20135;-84
2023/05/30 03:41:04;;;;;;;9.75;2.97;;;11.10;99.90;;;;;;5053507;28;20040;-84
2023/05/30 03:43:31;;;;;;;13.80;2.85;;;11.10;99.90;;;;;;5037870;28;20562;-84
2023/05/30 03:45:57;;;;;;;8.90;2.42;;;11.10;99.90;;;;;;5073456;28;20037;-85
2023/05/30 03:48:24;;;;;;;12.48;2.88;;;11.10;99.90;;;;;;5057065;28;20097;-84
2023/05/30 03:50:51;;;;;;;8.75;2.53;;;11.10;99.90;;;;;;5089785;28;20055;-84
2023/05/30 03:53:17;;;;;;;12.43;2.60;;;11.10;99.90;;;;;;5089637;28;20175;-84
2023/05/30 03:55:44;;;;;;;15.02;3.28;;;11.10;99.90;;;;;;5055513;28;20063;-84
2023/05/30 03:58:11;;;;;;;9.65;2.55;;;11.10;99.90;;;;;;5073216;28;20048;-84
2023/05/30 04:00:37;;;;;;;17.83;3.20;;;11.10;99.90;;;;;;5071564;28;20390;-85
2023/05/30 04:03:04;;;;;;;13.77;2.55;;;11.20;99.90;;;;;;5052913;28;20401;-84
2023/05/30 04:05:31;;;;;;;9.88;2.60;;;11.10;99.90;;;;;;5047718;28;20044;-84
2023/05/30 04:07:57;;;;;;;11.32;2.85;;;11.20;99.90;;;;;;5058495;28;20040;-84
2023/05/30 04:10:24;;;;;;;11.60;3.33;;;11.20;99.90;;;;;;5036573;28;20051;-84
2023/05/30 04:12:51;;;;;;;14.93;3.20;;;11.20;99.90;;;;;;5052446;28;20053;-85
2023/05/30 04:15:18;;;;;;;9.18;2.88;;;11.30;99.90;;;;;;5076157;28;20528;-84
2023/05/30 04:17:45;;;;;;;13.10;3.17;;;11.30;99.90;;;;;;5055851;28;20044;-84
2023/05/30 04:20:12;;;;;;;17.60;2.92;;;11.30;99.90;;;;;;5056226;28;20413;-84
2023/05/30 04:22:39;;;;;;;9.80;2.53;;;11.30;99.90;;;;;;5072736;28;20048;-84
2023/05/30 04:25:06;;;;;;;13.20;3.33;;;11.30;99.90;;;;;;5056348;28;20058;-84
2023/05/30 04:27:34;;;;;;;11.82;2.65;;;11.30;99.90;;;;;;5052892;28;20495;-84
2023/05/30 04:30:03;;;;;;;16.73;2.92;;;11.30;99.90;;;;;;5073058;28;20055;-84
2023/05/30 04:32:33;;;;;;;9.95;2.30;;;11.30;99.90;;;;;;5056744;28;20497;-84
2023/05/30 04:35:04;;;;;;;14.98;3.70;;;11.30;99.90;;;;;;5073608;28;20119;-84
2023/05/30 04:37:30;;;;;;;10.73;2.70;;;11.30;99.90;;;;;;5089224;28;20041;-84
2023/05/30 04:39:57;;;;;;;11.20;2.42;;;11.30;99.90;;;;;;5055693;28;20041;-84
2023/05/30 04:42:33;;;;;;;13.32;3.00;;;11.30;99.90;;;;;;5072663;28;20433;-84
2023/05/30 04:45:04;;;;;;;7.35;2.78;;;11.30;99.90;;;;;;5058748;28;20178;-84
2023/05/30 04:47:31;;;;;;;10.52;2.53;;;11.30;99.90;;;;;;5072807;28;20182;-84
2023/05/30 04:50:00;;;;;;;14.13;2.88;;;11.30;99.90;;;;;;5055155;28;20127;-84
2023/05/30 04:52:27;;;;;;;9.77;2.65;;;11.30;99.90;;;;;;5072660;28;20563;-84
2023/05/30 04:54:55;;;;;;;6.35;2.10;;;11.30;99.90;;;;;;5071938;28;20408;-84
2023/05/30 04:57:21;;;;;;;17.27;2.50;;;11.30;99.90;;;;;;5088964;28;20040;-84
2023/05/30 04:59:48;;;;;;;13.65;3.08;;;11.30;99.90;;;;;;5059058;28;20041;-84
2023/05/30 05:02:16;;;;;;;10.45;2.30;;;11.30;99.90;;;;;;5072291;28;20540;-84
2023/05/30 05:04:43;;;;;;;12.60;2.50;;;11.30;99.90;;;;;;5071733;28;20051;-84
2023/05/30 05:07:09;;;;;;;13.60;2.42;;;11.30;99.90;;;;;;5068627;28;20041;-84
2023/05/30 05:09:36;;;;;;;10.15;2.38;;;11.30;99.90;;;;;;5051246;28;20098;-84
2023/05/30 05:12:03;;;;;;;10.23;3.13;;;11.40;99.90;;;;;;5051957;28;20072;-84
2023/05/30 05:14:30;;;;;;;12.45;2.78;;;11.30;99.90;;;;;;5052469;28;20452;-84
2023/05/30 05:16:57;;;;;;;13.93;3.00;;;11.30;99.90;;;;;;5052073;28;20083;-84
2023/05/30 05:19:23;;;;;;;8.02;2.55;;;11.30;99.90;;;;;;5054077;28;20477;-84
2023/05/30 05:21:50;;;;;;;13.75;2.92;;;11.30;99.90;;;;;;5072717;28;20033;-84
2023/05/30 05:24:17;;;;;;;6.38;2.00;;;11.40;99.90;;;;;;5088926;28;20511;-84
2023/05/30 05:26:44;;;;;;;14.88;2.45;;;11.30;99.90;;;;;;5071904;28;20123;-84
2023/05/30 05:29:11;;;;;;;9.98;2.85;;;11.40;99.90;;;;;;5089607;28;20037;-84
2023/05/30 05:31:38;;;;;;;8.40;2.25;;;11.40;99.90;;;;;;5059532;28;20455;-84
2023/05/30 05:34:05;;;;;;;8.05;2.55;;;11.40;99.90;;;;;;5059035;28;20048;-84
2023/05/30 05:36:31;;;;;;;10.48;2.47;;;11.40;99.90;;;;;;5057374;28;20116;-84
2023/05/30 05:38:58;;;;;;;6.53;2.42;;;11.40;99.90;;;;;;5039423;28;20044;-84
2023/05/30 05:41:25;;;;;;;6.68;2.20;;;11.50;99.90;;;;;;5039391;28;20143;-84
2023/05/30 05:43:52;;;;;;;6.20;2.28;;;11.40;99.90;;;;;;5039369;28;20123;-84
2023/05/30 05:46:19;;;;;;;8.88;2.03;;;11.50;99.90;;;;;;5070509;28;20128;-84
2023/05/30 05:48:46;;;;;;;10.35;2.58;;;11.50;99.90;;;;;;5075489;28;20032;-84
2023/05/30 05:51:12;;;;;;;5.22;2.00;;;11.50;99.90;;;;;;5092272;28;20051;-84
2023/05/30 05:53:39;;;;;;;6.63;1.83;;;11.50;99.90;;;;;;5092384;28;20044;-84
2023/05/30 05:56:06;;;;;;;5.78;2.28;;;11.50;99.90;;;;;;5056802;28;20063;-84
2023/05/30 05:58:33;;;;;;;7.95;2.10;;;11.50;99.90;;;;;;5075394;28;20059;-85
2023/05/30 06:00:59;;;;;;;6.95;2.10;;;11.50;99.90;;;;;;5075551;28;20131;-85
2023/05/30 06:03:26;;;;;;;7.70;2.42;;;11.50;99.90;;;;;;5075834;28;20110;-84
2023/05/30 06:05:53;;;;;;;6.50;2.30;;;11.60;99.90;;;;;;5088305;28;20033;-85
2023/05/30 06:08:19;;;;;;;8.05;2.30;;;11.50;99.90;;;;;;5055273;28;20043;-85
2023/05/30 06:10:46;;;;;;;7.32;1.90;;;11.60;99.90;;;;;;5055085;28;20052;-85
2023/05/30 06:13:14;;;;;;;9.77;2.20;;;11.60;99.90;;;;;;5038693;28;20049;-85
2023/05/30 06:15:41;;;;;;;6.38;1.83;;;11.60;99.90;;;;;;5055189;28;20126;-84
2023/05/30 06:18:07;;;;;;;6.75;2.10;;;11.60;99.90;;;;;;5039207;28;20033;-85
2023/05/30 06:20:34;;;;;;;9.02;2.45;;;11.70;99.90;;;;;;5055122;28;20095;-85
2023/05/30 06:23:01;;;;;;;6.38;2.38;;;11.70;99.90;;;;;;5038360;28;20033;-85
2023/05/30 06:25:30;;;;;;;8.48;2.10;;;11.80;99.90;;;;;;5045682;28;20064;-86
2023/05/30 06:27:56;;;;;;;7.82;2.15;;;11.80;99.90;;;;;;5039529;28;20033;-87
2023/05/30 06:30:23;;;;;;;5.82;1.80;;;11.80;99.90;;;;;;5058743;28;20044;-87
2023/05/30 06:32:50;;;;;;;6.90;1.85;;;11.90;99.90;;;;;;5075360;28;20047;-87
2023/05/30 06:35:17;;;;;;;8.85;2.03;;;11.90;99.90;;;;;;5059249;28;20475;-87
2023/05/30 06:37:44;;;;;;;6.25;1.85;;;11.90;99.90;;;;;;5058509;28;20094;-84
2023/05/30 06:40:11;;;;;;;7.75;2.28;;;11.90;99.90;;;;;;5075793;28;20123;-91
2023/05/30 06:42:38;;;;;;;5.82;1.73;;;11.90;99.90;;;;;;5075811;28;20076;-91
2023/05/30 06:45:05;;;;;;;8.00;2.15;;;11.90;99.90;;;;;;5052171;28;20036;-94
2023/05/30 06:47:32;;;;;;;7.75;1.95;;;12.00;99.90;;;;;;5066976;28;20510;-93
2023/05/30 06:49:59;;;;;;;7.53;1.90;;;11.90;99.90;;;;;;5066403;28;20122;-93
2023/05/30 06:52:25;;;;;;;8.43;2.10;;;11.90;99.90;;;;;;5048283;28;20131;-95
2023/05/30 06:54:52;;;;;;;7.88;2.10;;;11.90;99.90;;;;;;5071516;28;20508;-93
2023/05/30 06:57:19;;;;;;;9.43;2.35;;;11.90;99.90;;;;;;5072042;28;20500;-90
2023/05/30 06:59:46;;;;;;;8.25;1.85;;;11.90;99.90;;;;;;5105207;28;20037;-89
2023/05/30 07:02:12;;;;;;;10.10;2.22;;;11.90;99.90;;;;;;5104694;28;20131;-89
2023/05/30 07:04:39;;;;;;;12.18;2.30;;;12.00;99.90;;;;;;5055024;28;20041;-89
2023/05/30 07:07:06;;;;;;;9.52;1.85;;;12.00;99.90;;;;;;5105063;28;20531;-89
2023/05/30 07:09:33;;;;;;;6.85;1.83;;;12.00;99.90;;;;;;5088494;28;20371;-89
2023/05/30 07:12:00;;;;;;;6.13;1.60;;;12.10;99.90;;;;;;5106301;28;20132;-89
2023/05/30 07:14:27;;;;;;;9.23;2.00;;;12.00;99.90;;;;;;5075481;28;20091;-90
2023/05/30 07:16:54;;;;;;;3.33;1.50;;;12.00;99.90;;;;;;5091128;28;20067;-90
2023/05/30 07:19:20;;;;;;;6.32;1.85;;;12.00;99.90;;;;;;5091261;28;20545;-89
2023/05/30 07:21:47;;;;;;;8.57;1.80;;;12.00;99.90;;;;;;5074790;28;20044;-89
2023/05/30 07:24:14;;;;;;;6.93;2.13;;;12.00;99.90;;;;;;5073555;28;20493;-89
2023/05/30 07:26:41;;;;;;;7.20;1.70;;;11.90;99.90;;;;;;5054901;28;20098;-90
2023/05/30 07:29:07;;;;;;;10.23;1.70;;;12.00;99.90;;;;;;5038262;28;20040;-90
2023/05/30 07:31:34;;;;;;;7.88;2.03;;;11.90;99.90;;;;;;5054688;28;20421;-89
2023/05/30 07:34:01;;;;;;;7.80;2.00;;;12.00;99.90;;;;;;5054315;28;20040;-89
2023/05/30 07:36:27;;;;;;;5.22;1.98;;;12.10;99.90;;;;;;5055489;28;20654;-89
2023/05/30 07:38:54;;;;;;;5.82;1.88;;;12.00;99.90;;;;;;5058319;28;20127;-89
2023/05/30 07:41:22;;;;;;;3.67;1.73;;;12.10;99.90;;;;;;5057586;28;20040;-89
2023/05/30 07:43:48;;;;;;;6.68;2.13;;;12.10;99.90;;;;;;5074887;28;20036;-90
2023/05/30 07:46:15;;;;;;;6.78;1.88;;;12.10;99.90;;;;;;5091027;28;20063;-90
2023/05/30 07:48:42;;;;;;;5.53;1.80;;;12.20;99.90;;;;;;5052072;28;20033;-90
2023/05/30 07:51:10;;;;;;;4.40;1.55;;;12.20;99.90;;;;;;5038002;28;20052;-89
2023/05/30 07:53:36;;;;;;;3.40;1.15;;;12.30;99.90;;;;;;5070530;28;20135;-89
2023/05/30 07:56:03;;;;;;;6.22;1.38;;;12.30;99.90;;;;;;5054016;28;20152;-89
2023/05/30 07:58:30;;;;;;;5.05;1.40;;;12.40;99.90;;;;;;5065221;28;20072;-89
2023/05/30 08:00:57;;;;;;;6.43;1.50;;;12.40;99.90;;;;;;5074422;28;20048;-90
2023/05/30 08:03:25;;;;;;;4.00;1.30;;;12.40;99.90;;;;;;5074298;28;20124;-89
2023/05/30 08:05:52;;;;;;;2.33;0.90;;;12.40;99.90;;;;;;5074666;28;20036;-89
2023/05/30 08:08:19;;;;;;;3.35;1.08;;;12.50;99.90;;;;;;5074054;28;20121;-89
2023/05/30 08:10:46;;;;;;;8.77;1.38;;;12.50;99.90;;;;;;5074352;28;20118;-90
2023/05/30 08:13:16;;;;;;;2.20;0.90;;;12.60;99.90;;;;;;5073679;28;20099;-89
2023/05/30 08:15:43;;;;;;;2.35;0.82;;;12.60;99.90;;;;;;5090594;28;20485;-89
2023/05/30 08:18:11;;;;;;;3.17;0.93;;;12.80;99.90;;;;;;5073832;28;20040;-89
2023/05/30 08:20:38;;;;;;;2.67;1.02;;;13.00;99.90;;;;;;5090415;28;20044;-90
2023/05/30 08:23:05;;;;;;;1.98;1.05;;;13.20;99.90;;;;;;5090534;28;20045;-89
2023/05/30 08:25:35;;;;;;;3.03;1.13;;;13.40;99.90;;;;;;5057429;28;20081;-90
2023/05/30 08:28:03;;;;;;;3.45;1.10;;;13.30;99.90;;;;;;5058383;28;20079;-90
2023/05/30 08:30:29;;;;;;;4.03;1.02;;;13.00;99.90;;;;;;5073344;28;20041;-90
2023/05/30 08:32:56;;;;;;;3.28;1.00;;;13.40;99.90;;;;;;5057413;28;20070;-89
2023/05/30 08:35:23;;;;;;;2.58;0.93;;;13.40;99.90;;;;;;5057338;28;20076;-89
2023/05/30 08:37:50;;;;;;;2.50;1.13;;;13.40;99.90;;;;;;5073568;28;20072;-90
2023/05/30 08:40:17;;;;;;;2.35;1.15;;;13.40;99.90;;;;;;5089829;28;20040;-89
2023/05/30 08:42:44;;;;;;;2.72;1.25;;;13.30;99.90;;;;;;5074248;28;20041;-89
2023/05/30 08:45:11;;;;;;;3.40;1.10;;;13.50;99.90;;;;;;5037040;28;20083;-89
2023/05/30 08:47:38;;;;;;;3.90;1.02;;;13.80;99.90;;;;;;5069983;28;20091;-90
2023/05/30 08:50:08;;;;;;;2.63;1.00;;;13.80;99.90;;;;;;5069934;28;20486;-90
2023/05/30 08:52:38;;;;;;;2.40;0.90;;;13.80;99.90;;;;;;5070086;28;20052;-90
2023/05/30 08:55:11;;;;;;;2.25;1.00;;;13.70;99.90;;;;;;5087086;28;20045;-90
2023/05/30 08:58:15;;;;;;;4.03;1.10;;;13.60;99.90;;;;;;5090299;28;20106;-90
2023/05/30 09:00:42;;;;;;;2.95;1.10;;;13.60;99.90;;;;;;5090076;28;20049;-90
2023/05/30 09:03:11;;;;;;;2.92;1.10;;;13.50;99.90;;;;;;5057186;28;20134;-89
2023/05/30 09:05:38;;;;;;;3.50;1.20;;;13.50;99.90;;;;;;5074535;28;20044;-89
2023/05/30 09:08:08;;;;;;;4.05;1.20;;;13.50;99.90;;;;;;5041533;28;20113;-89
2023/05/30 09:10:36;;;;;;;5.38;1.27;;;13.50;99.90;;;;;;5057761;28;20552;-89
2023/05/30 09:13:03;;;;;;;3.50;1.08;;;13.50;99.90;;;;;;5073586;28;20386;-89
2023/05/30 09:15:29;;;;;;;2.67;1.00;;;13.50;99.90;;;;;;5042560;28;20094;-90
2023/05/30 09:17:56;;;;;;;2.72;0.90;;;13.40;99.90;;;;;;5041270;28;20053;-90
2023/05/30 09:20:24;;;;;;;2.00;1.00;;;13.30;99.90;;;;;;5073348;28;20053;-89
2023/05/30 09:22:51;;;;;;;1.55;0.88;;;13.20;99.90;;;;;;5057403;28;20136;-90
2023/05/30 09:25:18;;;;;;;2.03;0.90;;;13.20;99.90;;;;;;5065803;28;20127;-90
2023/05/30 09:27:50;;;;;;;3.35;0.80;;;13.10;99.90;;;;;;5077396;28;20082;-90
2023/05/30 09:30:18;;;;;;;3.30;0.88;;;13.10;99.90;;;;;;5093597;28;20114;-89
2023/05/30 09:33:00;;;;;;;1.55;0.73;;;13.10;99.90;;;;;;5093462;28;20047;-89
2023/05/30 09:35:27;;;;;;;1.88;0.70;;;13.10;99.90;;;;;;5092046;28;20036;-90
2023/05/30 09:37:54;;;;;;;2.67;1.27;;;13.20;99.90;;;;;;5093384;28;20044;-90
2023/05/30 09:40:23;;;;;;;1.38;0.80;;;13.20;99.90;;;;;;5092913;28;20040;-89
2023/05/30 09:42:53;;;;;;;2.60;1.00;;;13.30;99.90;;;;;;5076511;28;20381;-90
2023/05/30 09:45:24;;;;;;;2.40;0.90;;;13.30;99.90;;;;;;5107657;28;20040;-90
2023/05/30 09:47:52;;;;;;;1.17;0.80;;;13.30;99.90;;;;;;5074563;28;20044;-90
2023/05/30 09:50:23;;;;;;;3.63;0.85;;;13.30;99.90;;;;;;5056284;28;20095;-89
2023/05/30 09:52:56;;;;;;;2.72;0.90;;;13.30;99.90;;;;;;5089860;28;20129;-90
2023/05/30 09:55:24;;;;;;;3.72;1.27;;;13.30;99.90;;;;;;5057478;28;20075;-89
2023/05/30 09:57:52;;;;;;;1.88;1.00;;;13.30;99.90;;;;;;5056853;28;20554;-90
2023/05/30 10:00:24;;;;;;;1.70;1.10;;;13.30;99.90;;;;;;5072561;28;20055;-89
2023/05/30 10:02:57;;;;;;;1.90;0.98;;;13.30;99.90;;;;;;5073596;28;20083;-90
2023/05/30 10:05:28;;;;;;;3.08;1.20;;;13.30;99.90;;;;;;5056499;28;20087;-89
2023/05/30 10:07:57;;;;;;;2.42;1.17;;;13.40;99.90;;;;;;5089955;28;20053;-90
2023/05/30 10:10:25;;;;;;;2.25;1.15;;;13.40;99.90;;;;;;5089505;28;20500;-89
2023/05/30 10:12:54;;;;;;;2.67;1.45;;;13.40;99.90;;;;;;5092476;28;20507;-90
2023/05/30 10:15:23;;;;;;;4.55;1.23;;;13.50;99.90;;;;;;5075680;28;20045;-89
2023/05/30 10:18:07;;;;;;;2.15;1.15;;;13.60;99.90;;;;;;5081080;28;20052;-90
2023/05/30 10:20:44;;;;;;;5.40;1.30;;;13.60;99.90;;;;;;5087843;28;20043;-90
2023/05/30 10:23:13;;;;;;;2.58;1.05;;;13.70;99.90;;;;;;5092939;28;20078;-89
2023/05/30 10:25:49;;;;;;;2.70;1.20;;;13.90;99.90;;;;;;5076205;28;20151;-90
2023/05/30 10:28:20;;;;;;;2.47;1.15;;;13.90;99.90;;;;;;5092576;28;20066;-90
2023/05/30 10:30:49;;;;;;;2.90;1.13;;;14.00;99.90;;;;;;5092821;28;20064;-90
2023/05/30 10:33:17;;;;;;;1.60;0.95;;;14.10;99.90;;;;;;5092637;28;20093;-90
2023/05/30 10:35:46;;;;;;;2.30;1.10;;;14.20;99.90;;;;;;5075547;28;20511;-90
2023/05/30 10:38:13;;;;;;;3.80;1.30;;;14.10;99.90;;;;;;5066701;28;20045;-90
2023/05/30 10:40:53;;;;;;;3.13;1.30;;;14.20;99.90;;;;;;5083825;28;20048;-90
2023/05/30 10:43:23;;;;;;;1.90;1.05;;;14.20;99.90;;;;;;5092462;28;20115;-89
2023/05/30 10:46:08;;;;;;;1.85;1.05;;;14.20;99.90;;;;;;5092194;28;20123;-90
2023/05/30 10:48:52;;;;;;;3.83;1.20;;;14.30;99.90;;;;;;5083487;28;20078;-89
2023/05/30 10:51:20;;;;;;;3.20;1.23;;;14.40;99.90;;;;;;5071989;28;20097;-90
2023/05/30 10:53:47;;;;;;;4.72;1.13;;;14.40;99.90;;;;;;5071831;28;20056;-90
2023/05/30 10:56:34;;;;;;;2.67;1.00;;;14.50;99.90;;;;;;5072363;28;20105;-89
2023/05/30 10:59:02;;;;;;;5.47;1.80;;;14.50;99.90;;;;;;5079803;28;20055;-89
2023/05/30 11:01:30;;;;;;;2.47;1.33;;;14.50;99.90;;;;;;5091629;28;20044;-89
2023/05/30 11:04:00;;;;;;;4.65;1.30;;;14.50;99.90;;;;;;5075229;28;20075;-90
2023/05/30 11:06:29;;;;;;;3.63;1.50;;;14.40;99.90;;;;;;5091562;28;20036;-90
2023/05/30 11:09:08;;;;;;;3.58;1.30;;;14.50;99.90;;;;;;5089646;28;20037;-90
2023/05/30 11:11:59;;;;;;;3.03;1.20;;;14.50;99.90;;;;;;5090977;28;20500;-90
2023/05/30 11:14:32;;;;;;;3.38;1.00;;;14.60;99.90;;;;;;5086315;28;20143;-89
2023/05/30 11:17:05;;;;;;;3.90;1.23;;;14.70;99.90;;;;;;5091730;28;20056;-90
2023/05/30 11:19:44;;;;;;;2.75;1.20;;;14.70;99.90;;;;;;5091428;28;20382;-90
2023/05/30 11:22:15;;;;;;;2.83;1.30;;;14.80;99.90;;;;;;5075541;28;20044;-91
2023/05/30 11:24:43;;;;;;;2.33;1.10;;;14.80;99.90;;;;;;5071141;28;20397;-91
2023/05/30 11:27:16;;;;;;;3.05;1.20;;;14.80;99.90;;;;;;5070702;28;20041;-92
2023/05/30 11:29:53;;;;;;;3.58;1.00;;;14.80;99.90;;;;;;5071464;28;20099;-91
2023/05/30 11:32:25;;;;;;;2.05;0.90;;;14.80;99.90;;;;;;5056326;28;20489;-91
2023/05/30 11:35:02;;;;;;;1.17;0.75;;;14.90;99.90;;;;;;5055118;28;20122;-90
2023/05/30 11:37:35;;;;;;;1.83;0.75;;;14.90;99.90;;;;;;5070878;28;20041;-89
2023/05/30 11:40:05;;;;;;;1.38;0.80;;;14.90;99.90;;;;;;5055184;28;20078;-90
2023/05/30 11:42:32;;;;;;;1.77;1.00;;;14.90;99.90;;;;;;5062043;28;20053;-89
2023/05/30 11:44:59;;;;;;;5.95;1.45;;;14.80;99.90;;;;;;5071127;28;20051;-91
2023/05/30 11:47:25;;;;;;;3.88;1.00;;;14.80;99.90;;;;;;5054328;28;20040;-91
2023/05/30 11:49:56;;;;;;;2.58;1.10;;;14.80;99.90;;;;;;5038250;28;20052;-90
2023/05/30 11:52:23;;;;;;;2.38;1.10;;;14.70;99.90;;;;;;5090784;28;20046;-90
2023/05/30 11:54:50;;;;;;;2.40;1.20;;;14.70;99.90;;;;;;5056028;28;20479;-91
2023/05/30 11:57:17;;;;;;;2.40;1.05;;;14.70;99.90;;;;;;5048519;28;20040;-90
2023/05/30 11:59:44;;;;;;;2.35;1.10;;;14.70;99.90;;;;;;5048936;28;20033;-91
2023/05/30 12:02:11;;;;;;;2.10;1.00;;;14.80;99.90;;;;;;5074520;28;20040;-90
2023/05/30 12:04:38;;;;;;;2.67;1.10;;;14.90;99.90;;;;;;5057637;28;20037;-91
2023/05/30 12:07:06;;;;;;;2.17;1.08;;;14.90;99.90;;;;;;5057747;28;20067;-90
2023/05/30 12:09:40;;;;;;;2.22;0.93;;;15.00;99.90;;;;;;5073788;28;20039;-90
2023/05/30 12:12:07;;;;;;;3.53;1.15;;;15.10;99.90;;;;;;5072243;28;20074;-90
2023/05/30 12:15:01;;;;;;;2.70;1.20;;;15.20;99.90;;;;;;5074289;28;20128;-91
2023/05/30 12:17:28;;;;;;;4.03;1.20;;;15.20;99.90;;;;;;5090721;28;20036;-90
2023/05/30 12:20:06;;;;;;;3.55;1.33;;;15.20;99.90;;;;;;5106808;28;20044;-91
2023/05/30 12:22:33;;;;;;;2.00;1.00;;;15.30;99.90;;;;;;5106971;28;20040;-91
2023/05/30 12:25:09;;;;;;;3.63;1.10;;;15.30;99.90;;;;;;5107157;28;20042;-91
2023/05/30 12:27:40;;;;;;;2.20;1.20;;;15.50;99.90;;;;;;5091094;28;20051;-89
2023/05/30 12:30:15;;;;;;;2.10;1.17;;;15.60;99.90;;;;;;5091357;28;20504;-91
2023/05/30 12:32:42;;;;;;;1.87;1.00;;;15.50;99.90;;;;;;5089759;28;20047;-91
2023/05/30 12:35:10;;;;;;;1.88;0.80;;;15.50;99.90;;;;;;5090319;28;20040;-90
2023/05/30 12:37:37;;;;;;;3.47;1.00;;;15.50;99.90;;;;;;5090681;28;20040;-90
2023/05/30 12:40:06;;;;;;;1.75;0.80;;;15.40;99.90;;;;;;5073745;28;20029;-91
2023/05/30 12:42:37;;;;;;;4.45;0.95;;;15.40;99.90;;;;;;5090024;28;20485;-91
2023/05/30 12:45:06;;;;;;;2.80;0.90;;;15.40;99.90;;;;;;5072985;28;20485;-90
2023/05/30 12:47:35;;;;;;;3.65;0.88;;;15.40;99.90;;;;;;5086840;28;20122;-91
2023/05/30 12:50:02;;;;;;;2.88;0.90;;;15.30;99.90;;;;;;5103298;28;20041;-91
2023/05/30 12:52:29;;;;;;;2.47;0.98;;;15.30;99.90;;;;;;5056862;28;20133;-90